sensor_id;sensor_type;location;lat;lon;timestamp;P1;durP1;ratioP1;P2;durP2;ratioP2
39266;SDS011;24967;51.154;13.812;2023-02-18T00:00:17;2.10;;;0.75;;
39266;SDS011;24967;51.154;13.812;2023-02-18T00:02:46;2.05;;;0.70;;
39266;SDS011;24967;51.154;13.812;2023-02-18T00:05:13;1.33;;;0.60;;
39266;SDS011;24967;51.154;13.812;2023-02-18T00:07:40;1.80;;;0.52;;
39266;SDS011;24967;51.154;13.812;2023-02-18T00:10:07;1.90;;;0.70;;
39266;SDS011;24967;51.154;13.812;2023-02-18T00:12:36;1.98;;;0.80;;
39266;SDS011;24967;51.154;13.812;2023-02-18T00:15:03;3.35;;;1.05;;
39266;SDS011;24967;51.154;13.812;2023-02-18T00:17:30;2.28;;;1.05;;
39266;SDS011;24967;51.154;13.812;2023-02-18T00:19:59;2.70;;;0.70;;
39266;SDS011;24967;51.154;13.812;2023-02-18T00:22:25;3.03;;;0.82;;
39266;SDS011;24967;51.154;13.812;2023-02-18T00:24:52;1.98;;;0.60;;
39266;SDS011;24967;51.154;13.812;2023-02-18T00:27:18;2.20;;;0.85;;
39266;SDS011;24967;51.154;13.812;2023-02-18T00:29:45;3.65;;;0.70;;
39266;SDS011;24967;51.154;13.812;2023-02-18T00:32:11;1.23;;;0.50;;
39266;SDS011;24967;51.154;13.812;2023-02-18T00:34:38;3.08;;;0.68;;
39266;SDS011;24967;51.154;13.812;2023-02-18T00:37:05;1.33;;;0.68;;
39266;SDS011;24967;51.154;13.812;2023-02-18T00:39:32;2.15;;;0.60;;
39266;SDS011;24967;51.154;13.812;2023-02-18T00:41:58;4.28;;;1.10;;
39266;SDS011;24967;51.154;13.812;2023-02-18T00:44:25;1.70;;;0.90;;
39266;SDS011;24967;51.154;13.812;2023-02-18T00:46:51;3.03;;;0.80;;
39266;SDS011;24967;51.154;13.812;2023-02-18T00:49:18;2.90;;;0.77;;
39266;SDS011;24967;51.154;13.812;2023-02-18T00:51:44;3.38;;;1.10;;
39266;SDS011;24967;51.154;13.812;2023-02-18T00:54:12;3.45;;;0.65;;
39266;SDS011;24967;51.154;13.812;2023-02-18T00:56:39;2.03;;;0.70;;
39266;SDS011;24967;51.154;13.812;2023-02-18T00:59:05;2.20;;;0.80;;
39266;SDS011;24967;51.154;13.812;2023-02-18T01:01:32;3.22;;;0.88;;
39266;SDS011;24967;51.154;13.812;2023-02-18T01:03:59;1.20;;;0.50;;
39266;SDS011;24967;51.154;13.812;2023-02-18T01:06:25;2.97;;;0.85;;
39266;SDS011;24967;51.154;13.812;2023-02-18T01:08:52;3.67;;;1.00;;
39266;SDS011;24967;51.154;13.812;2023-02-18T01:11:20;1.52;;;0.60;;
39266;SDS011;24967;51.154;13.812;2023-02-18T01:13:46;5.00;;;0.68;;
39266;SDS011;24967;51.154;13.812;2023-02-18T01:16:13;4.88;;;1.13;;
39266;SDS011;24967;51.154;13.812;2023-02-18T01:18:41;5.22;;;0.82;;
39266;SDS011;24967;51.154;13.812;2023-02-18T01:21:08;4.20;;;0.73;;
39266;SDS011;24967;51.154;13.812;2023-02-18T01:23:35;3.97;;;1.20;;
39266;SDS011;24967;51.154;13.812;2023-02-18T01:26:02;1.67;;;0.82;;
39266;SDS011;24967;51.154;13.812;2023-02-18T01:28:31;4.13;;;0.77;;
39266;SDS011;24967;51.154;13.812;2023-02-18T01:30:57;2.70;;;0.77;;
39266;SDS011;24967;51.154;13.812;2023-02-18T01:35:55;3.20;;;0.50;;
39266;SDS011;24967;51.154;13.812;2023-02-18T01:38:21;3.75;;;0.80;;
39266;SDS011;24967;51.154;13.812;2023-02-18T01:40:48;3.05;;;0.80;;
39266;SDS011;24967;51.154;13.812;2023-02-18T01:43:17;5.05;;;0.68;;
39266;SDS011;24967;51.154;13.812;2023-02-18T01:45:48;2.72;;;0.80;;
39266;SDS011;24967;51.154;13.812;2023-02-18T01:48:23;6.10;;;1.00;;
39266;SDS011;24967;51.154;13.812;2023-02-18T01:50:56;1.58;;;0.70;;
39266;SDS011;24967;51.154;13.812;2023-02-18T01:53:27;4.70;;;0.80;;
39266;SDS011;24967;51.154;13.812;2023-02-18T01:55:57;3.88;;;0.60;;
39266;SDS011;24967;51.154;13.812;2023-02-18T01:58:28;5.38;;;0.80;;
39266;SDS011;24967;51.154;13.812;2023-02-18T02:00:56;3.38;;;0.85;;
39266;SDS011;24967;51.154;13.812;2023-02-18T02:03:23;2.83;;;0.70;;
39266;SDS011;24967;51.154;13.812;2023-02-18T02:05:49;3.85;;;0.93;;
39266;SDS011;24967;51.154;13.812;2023-02-18T02:08:16;2.47;;;0.90;;
39266;SDS011;24967;51.154;13.812;2023-02-18T02:10:52;4.35;;;1.08;;
39266;SDS011;24967;51.154;13.812;2023-02-18T02:13:30;4.15;;;0.85;;
39266;SDS011;24967;51.154;13.812;2023-02-18T02:16:16;3.22;;;0.77;;
39266;SDS011;24967;51.154;13.812;2023-02-18T02:18:50;5.25;;;1.08;;
39266;SDS011;24967;51.154;13.812;2023-02-18T02:21:41;3.88;;;0.80;;
39266;SDS011;24967;51.154;13.812;2023-02-18T02:24:28;1.88;;;0.93;;
39266;SDS011;24967;51.154;13.812;2023-02-18T02:27:14;2.22;;;1.30;;
39266;SDS011;24967;51.154;13.812;2023-02-18T02:36:16;3.65;;;1.08;;
39266;SDS011;24967;51.154;13.812;2023-02-18T02:38:52;6.88;;;1.73;;
39266;SDS011;24967;51.154;13.812;2023-02-18T02:41:30;4.75;;;1.00;;
39266;SDS011;24967;51.154;13.812;2023-02-18T02:44:10;2.40;;;1.27;;
39266;SDS011;24967;51.154;13.812;2023-02-18T02:46:44;5.35;;;1.20;;
39266;SDS011;24967;51.154;13.812;2023-02-18T02:49:15;3.78;;;0.95;;
39266;SDS011;24967;51.154;13.812;2023-02-18T02:51:55;5.37;;;1.20;;
39266;SDS011;24967;51.154;13.812;2023-02-18T02:54:27;4.20;;;1.27;;
39266;SDS011;24967;51.154;13.812;2023-02-18T02:57:04;5.63;;;1.35;;
39266;SDS011;24967;51.154;13.812;2023-02-18T02:59:33;5.10;;;1.45;;
39266;SDS011;24967;51.154;13.812;2023-02-18T03:02:07;2.20;;;1.10;;
39266;SDS011;24967;51.154;13.812;2023-02-18T03:04:53;3.42;;;1.23;;
39266;SDS011;24967;51.154;13.812;2023-02-18T03:07:40;5.18;;;1.38;;
39266;SDS011;24967;51.154;13.812;2023-02-18T03:10:22;6.10;;;1.13;;
39266;SDS011;24967;51.154;13.812;2023-02-18T03:13:03;4.35;;;1.98;;
39266;SDS011;24967;51.154;13.812;2023-02-18T03:15:36;4.75;;;1.08;;
39266;SDS011;24967;51.154;13.812;2023-02-18T03:18:07;2.10;;;1.02;;
39266;SDS011;24967;51.154;13.812;2023-02-18T03:20:42;4.65;;;1.30;;
39266;SDS011;24967;51.154;13.812;2023-02-18T03:23:18;3.88;;;1.20;;
39266;SDS011;24967;51.154;13.812;2023-02-18T03:25:50;4.88;;;1.23;;
39266;SDS011;24967;51.154;13.812;2023-02-18T03:28:19;8.88;;;1.38;;
39266;SDS011;24967;51.154;13.812;2023-02-18T03:30:49;3.58;;;1.33;;
39266;SDS011;24967;51.154;13.812;2023-02-18T03:33:19;4.68;;;1.10;;
39266;SDS011;24967;51.154;13.812;2023-02-18T03:35:51;5.03;;;1.08;;
39266;SDS011;24967;51.154;13.812;2023-02-18T03:38:22;7.43;;;1.30;;
39266;SDS011;24967;51.154;13.812;2023-02-18T03:40:54;5.03;;;1.80;;
39266;SDS011;24967;51.154;13.812;2023-02-18T03:43:21;3.22;;;0.93;;
39266;SDS011;24967;51.154;13.812;2023-02-18T03:45:48;6.38;;;1.20;;
39266;SDS011;24967;51.154;13.812;2023-02-18T03:48:15;4.05;;;1.00;;
39266;SDS011;24967;51.154;13.812;2023-02-18T03:50:42;5.72;;;1.00;;
39266;SDS011;24967;51.154;13.812;2023-02-18T03:53:09;5.32;;;1.10;;
39266;SDS011;24967;51.154;13.812;2023-02-18T03:55:37;2.38;;;0.77;;
39266;SDS011;24967;51.154;13.812;2023-02-18T03:58:03;6.30;;;1.05;;
39266;SDS011;24967;51.154;13.812;2023-02-18T04:00:30;5.20;;;1.40;;
39266;SDS011;24967;51.154;13.812;2023-02-18T04:02:56;4.97;;;1.02;;
39266;SDS011;24967;51.154;13.812;2023-02-18T04:05:23;5.25;;;1.10;;
39266;SDS011;24967;51.154;13.812;2023-02-18T04:07:49;4.93;;;1.20;;
39266;SDS011;24967;51.154;13.812;2023-02-18T04:10:16;4.40;;;1.35;;
39266;SDS011;24967;51.154;13.812;2023-02-18T04:12:44;7.00;;;1.30;;
39266;SDS011;24967;51.154;13.812;2023-02-18T04:15:10;6.00;;;1.10;;
39266;SDS011;24967;51.154;13.812;2023-02-18T04:17:37;4.82;;;1.55;;
39266;SDS011;24967;51.154;13.812;2023-02-18T04:20:05;6.55;;;1.25;;
39266;SDS011;24967;51.154;13.812;2023-02-18T04:22:32;6.22;;;1.45;;
39266;SDS011;24967;51.154;13.812;2023-02-18T04:24:59;7.40;;;2.30;;
39266;SDS011;24967;51.154;13.812;2023-02-18T04:27:25;6.30;;;1.35;;
39266;SDS011;24967;51.154;13.812;2023-02-18T04:29:53;4.57;;;0.93;;
39266;SDS011;24967;51.154;13.812;2023-02-18T04:32:19;5.10;;;1.27;;
39266;SDS011;24967;51.154;13.812;2023-02-18T04:34:46;6.45;;;1.40;;
39266;SDS011;24967;51.154;13.812;2023-02-18T04:37:12;6.43;;;2.00;;
39266;SDS011;24967;51.154;13.812;2023-02-18T04:39:39;4.90;;;1.20;;
39266;SDS011;24967;51.154;13.812;2023-02-18T04:42:05;3.80;;;1.40;;
39266;SDS011;24967;51.154;13.812;2023-02-18T04:44:34;5.65;;;1.52;;
39266;SDS011;24967;51.154;13.812;2023-02-18T04:47:02;8.35;;;2.47;;
39266;SDS011;24967;51.154;13.812;2023-02-18T04:49:29;5.47;;;1.50;;
39266;SDS011;24967;51.154;13.812;2023-02-18T04:51:55;7.97;;;1.77;;
39266;SDS011;24967;51.154;13.812;2023-02-18T04:54:22;9.52;;;2.13;;
39266;SDS011;24967;51.154;13.812;2023-02-18T04:56:48;5.95;;;1.40;;
39266;SDS011;24967;51.154;13.812;2023-02-18T04:59:15;5.75;;;1.70;;
39266;SDS011;24967;51.154;13.812;2023-02-18T05:01:42;9.00;;;1.88;;
39266;SDS011;24967;51.154;13.812;2023-02-18T05:04:10;3.90;;;1.52;;
39266;SDS011;24967;51.154;13.812;2023-02-18T05:06:36;6.72;;;1.70;;
39266;SDS011;24967;51.154;13.812;2023-02-18T05:09:04;17.77;;;2.70;;
39266;SDS011;24967;51.154;13.812;2023-02-18T05:11:31;6.63;;;2.13;;
39266;SDS011;24967;51.154;13.812;2023-02-18T05:13:57;11.55;;;2.42;;
39266;SDS011;24967;51.154;13.812;2023-02-18T05:16:24;4.13;;;2.10;;
39266;SDS011;24967;51.154;13.812;2023-02-18T05:18:51;7.80;;;2.25;;
39266;SDS011;24967;51.154;13.812;2023-02-18T05:21:19;9.65;;;2.10;;
39266;SDS011;24967;51.154;13.812;2023-02-18T05:23:45;7.68;;;2.50;;
39266;SDS011;24967;51.154;13.812;2023-02-18T05:26:12;8.98;;;2.40;;
39266;SDS011;24967;51.154;13.812;2023-02-18T05:28:39;8.77;;;2.83;;
39266;SDS011;24967;51.154;13.812;2023-02-18T05:31:05;8.05;;;2.80;;
39266;SDS011;24967;51.154;13.812;2023-02-18T05:33:31;7.00;;;3.33;;
39266;SDS011;24967;51.154;13.812;2023-02-18T05:35:58;8.88;;;2.78;;
39266;SDS011;24967;51.154;13.812;2023-02-18T05:38:26;5.60;;;2.95;;
39266;SDS011;24967;51.154;13.812;2023-02-18T05:40:53;9.70;;;3.45;;
39266;SDS011;24967;51.154;13.812;2023-02-18T05:43:20;9.32;;;3.08;;
39266;SDS011;24967;51.154;13.812;2023-02-18T05:45:47;7.68;;;3.15;;
39266;SDS011;24967;51.154;13.812;2023-02-18T05:48:13;13.85;;;3.03;;
39266;SDS011;24967;51.154;13.812;2023-02-18T05:50:40;8.75;;;2.88;;
39266;SDS011;24967;51.154;13.812;2023-02-18T05:53:06;12.68;;;3.50;;
39266;SDS011;24967;51.154;13.812;2023-02-18T05:55:34;8.38;;;2.88;;
39266;SDS011;24967;51.154;13.812;2023-02-18T05:58:03;13.18;;;3.63;;
39266;SDS011;24967;51.154;13.812;2023-02-18T06:00:29;10.93;;;4.80;;
39266;SDS011;24967;51.154;13.812;2023-02-18T06:02:56;11.75;;;3.80;;
39266;SDS011;24967;51.154;13.812;2023-02-18T06:05:23;9.90;;;3.67;;
39266;SDS011;24967;51.154;13.812;2023-02-18T06:07:49;12.13;;;3.55;;
39266;SDS011;24967;51.154;13.812;2023-02-18T06:10:16;12.30;;;3.25;;
39266;SDS011;24967;51.154;13.812;2023-02-18T06:12:44;9.00;;;3.00;;
39266;SDS011;24967;51.154;13.812;2023-02-18T06:15:10;10.52;;;3.47;;
39266;SDS011;24967;51.154;13.812;2023-02-18T06:17:37;13.40;;;3.40;;
39266;SDS011;24967;51.154;13.812;2023-02-18T06:20:04;13.82;;;3.17;;
39266;SDS011;24967;51.154;13.812;2023-02-18T06:22:31;12.60;;;3.35;;
39266;SDS011;24967;51.154;13.812;2023-02-18T06:24:57;14.45;;;3.88;;
39266;SDS011;24967;51.154;13.812;2023-02-18T06:27:24;13.60;;;3.65;;
39266;SDS011;24967;51.154;13.812;2023-02-18T06:29:51;11.13;;;3.83;;
39266;SDS011;24967;51.154;13.812;2023-02-18T06:32:18;10.93;;;3.78;;
39266;SDS011;24967;51.154;13.812;2023-02-18T06:34:44;11.75;;;4.18;;
39266;SDS011;24967;51.154;13.812;2023-02-18T06:37:11;16.60;;;5.35;;
39266;SDS011;24967;51.154;13.812;2023-02-18T06:39:37;15.10;;;5.22;;
39266;SDS011;24967;51.154;13.812;2023-02-18T06:42:04;11.80;;;4.78;;
39266;SDS011;24967;51.154;13.812;2023-02-18T06:44:30;16.38;;;5.45;;
39266;SDS011;24967;51.154;13.812;2023-02-18T06:46:58;13.90;;;5.07;;
39266;SDS011;24967;51.154;13.812;2023-02-18T06:49:25;13.02;;;6.05;;
39266;SDS011;24967;51.154;13.812;2023-02-18T06:51:51;16.73;;;6.47;;
39266;SDS011;24967;51.154;13.812;2023-02-18T06:54:18;20.60;;;7.80;;
39266;SDS011;24967;51.154;13.812;2023-02-18T06:56:44;17.13;;;6.65;;
39266;SDS011;24967;51.154;13.812;2023-02-18T06:59:10;17.17;;;7.03;;
39266;SDS011;24967;51.154;13.812;2023-02-18T07:01:37;21.63;;;7.90;;
39266;SDS011;24967;51.154;13.812;2023-02-18T07:04:05;22.48;;;8.15;;
39266;SDS011;24967;51.154;13.812;2023-02-18T07:06:32;23.25;;;8.80;;
39266;SDS011;24967;51.154;13.812;2023-02-18T07:08:58;19.35;;;8.60;;
39266;SDS011;24967;51.154;13.812;2023-02-18T07:11:24;21.50;;;8.95;;
39266;SDS011;24967;51.154;13.812;2023-02-18T07:13:51;25.80;;;9.50;;
39266;SDS011;24967;51.154;13.812;2023-02-18T07:16:17;23.00;;;9.40;;
39266;SDS011;24967;51.154;13.812;2023-02-18T07:18:44;25.33;;;9.68;;
39266;SDS011;24967;51.154;13.812;2023-02-18T07:21:12;22.00;;;9.68;;
39266;SDS011;24967;51.154;13.812;2023-02-18T07:23:39;26.75;;;10.40;;
39266;SDS011;24967;51.154;13.812;2023-02-18T07:26:05;22.58;;;9.48;;
39266;SDS011;24967;51.154;13.812;2023-02-18T07:28:33;25.42;;;10.77;;
39266;SDS011;24967;51.154;13.812;2023-02-18T07:31:00;22.35;;;10.60;;
39266;SDS011;24967;51.154;13.812;2023-02-18T07:33:27;30.60;;;11.50;;
39266;SDS011;24967;51.154;13.812;2023-02-18T07:35:53;24.45;;;10.95;;
39266;SDS011;24967;51.154;13.812;2023-02-18T07:38:21;26.55;;;11.00;;
39266;SDS011;24967;51.154;13.812;2023-02-18T07:40:49;25.23;;;10.30;;
39266;SDS011;24967;51.154;13.812;2023-02-18T07:43:15;24.17;;;10.35;;
39266;SDS011;24967;51.154;13.812;2023-02-18T07:45:42;28.23;;;10.30;;
39266;SDS011;24967;51.154;13.812;2023-02-18T07:48:12;22.55;;;10.75;;
39266;SDS011;24967;51.154;13.812;2023-02-18T07:50:39;23.58;;;10.07;;
39266;SDS011;24967;51.154;13.812;2023-02-18T07:53:06;25.25;;;10.18;;
39266;SDS011;24967;51.154;13.812;2023-02-18T07:55:34;16.65;;;9.98;;
39266;SDS011;24967;51.154;13.812;2023-02-18T07:58:17;21.70;;;10.68;;
39266;SDS011;24967;51.154;13.812;2023-02-18T08:00:44;24.55;;;11.57;;
39266;SDS011;24967;51.154;13.812;2023-02-18T08:03:13;18.17;;;10.25;;
39266;SDS011;24967;51.154;13.812;2023-02-18T08:05:40;19.40;;;9.73;;
39266;SDS011;24967;51.154;13.812;2023-02-18T08:08:06;22.50;;;10.80;;
39266;SDS011;24967;51.154;13.812;2023-02-18T08:10:35;23.75;;;11.25;;
39266;SDS011;24967;51.154;13.812;2023-02-18T08:13:02;21.33;;;10.82;;
39266;SDS011;24967;51.154;13.812;2023-02-18T08:15:28;20.45;;;10.27;;
39266;SDS011;24967;51.154;13.812;2023-02-18T08:17:55;21.80;;;10.02;;
39266;SDS011;24967;51.154;13.812;2023-02-18T08:20:21;18.83;;;9.70;;
39266;SDS011;24967;51.154;13.812;2023-02-18T08:22:47;20.85;;;10.43;;
39266;SDS011;24967;51.154;13.812;2023-02-18T08:25:14;16.20;;;9.10;;
39266;SDS011;24967;51.154;13.812;2023-02-18T08:27:42;18.52;;;9.10;;
39266;SDS011;24967;51.154;13.812;2023-02-18T08:30:09;15.23;;;9.57;;
39266;SDS011;24967;51.154;13.812;2023-02-18T08:32:36;16.52;;;9.45;;
39266;SDS011;24967;51.154;13.812;2023-02-18T08:35:03;16.98;;;9.40;;
39266;SDS011;24967;51.154;13.812;2023-02-18T08:37:31;21.77;;;10.07;;
39266;SDS011;24967;51.154;13.812;2023-02-18T08:39:58;15.95;;;8.68;;
39266;SDS011;24967;51.154;13.812;2023-02-18T08:42:24;15.82;;;9.13;;
39266;SDS011;24967;51.154;13.812;2023-02-18T08:44:52;15.65;;;8.68;;
39266;SDS011;24967;51.154;13.812;2023-02-18T08:47:19;16.30;;;9.13;;
39266;SDS011;24967;51.154;13.812;2023-02-18T08:49:46;15.02;;;8.93;;
39266;SDS011;24967;51.154;13.812;2023-02-18T08:52:12;11.75;;;7.95;;
39266;SDS011;24967;51.154;13.812;2023-02-18T08:54:39;17.10;;;9.60;;
39266;SDS011;24967;51.154;13.812;2023-02-18T08:57:05;14.80;;;9.32;;
39266;SDS011;24967;51.154;13.812;2023-02-18T08:59:32;13.85;;;9.73;;
39266;SDS011;24967;51.154;13.812;2023-02-18T09:01:59;13.93;;;8.82;;
39266;SDS011;24967;51.154;13.812;2023-02-18T09:04:26;16.55;;;9.50;;
39266;SDS011;24967;51.154;13.812;2023-02-18T09:06:52;16.25;;;9.45;;
39266;SDS011;24967;51.154;13.812;2023-02-18T09:09:19;15.15;;;10.57;;
39266;SDS011;24967;51.154;13.812;2023-02-18T09:11:45;14.48;;;10.10;;
39266;SDS011;24967;51.154;13.812;2023-02-18T09:14:12;17.92;;;11.45;;
39266;SDS011;24967;51.154;13.812;2023-02-18T09:16:38;14.15;;;10.02;;
39266;SDS011;24967;51.154;13.812;2023-02-18T09:19:07;17.80;;;10.75;;
39266;SDS011;24967;51.154;13.812;2023-02-18T09:21:34;13.05;;;10.82;;
39266;SDS011;24967;51.154;13.812;2023-02-18T09:24:00;18.58;;;9.80;;
39266;SDS011;24967;51.154;13.812;2023-02-18T09:26:27;16.00;;;9.20;;
39266;SDS011;24967;51.154;13.812;2023-02-18T09:28:54;12.43;;;7.93;;
39266;SDS011;24967;51.154;13.812;2023-02-18T09:31:22;10.23;;;8.02;;
39266;SDS011;24967;51.154;13.812;2023-02-18T09:33:51;10.55;;;7.25;;
39266;SDS011;24967;51.154;13.812;2023-02-18T09:36:20;12.40;;;7.20;;
39266;SDS011;24967;51.154;13.812;2023-02-18T09:38:47;11.68;;;7.80;;
39266;SDS011;24967;51.154;13.812;2023-02-18T09:41:17;9.73;;;6.93;;
39266;SDS011;24967;51.154;13.812;2023-02-18T09:43:52;9.40;;;7.03;;
39266;SDS011;24967;51.154;13.812;2023-02-18T09:46:22;9.90;;;7.57;;
39266;SDS011;24967;51.154;13.812;2023-02-18T09:48:53;10.77;;;7.13;;
39266;SDS011;24967;51.154;13.812;2023-02-18T09:51:22;8.98;;;7.47;;
39266;SDS011;24967;51.154;13.812;2023-02-18T09:53:48;12.75;;;8.13;;
39266;SDS011;24967;51.154;13.812;2023-02-18T09:56:17;13.90;;;8.55;;
39266;SDS011;24967;51.154;13.812;2023-02-18T09:58:47;12.15;;;8.52;;
39266;SDS011;24967;51.154;13.812;2023-02-18T10:01:26;12.95;;;8.95;;
39266;SDS011;24967;51.154;13.812;2023-02-18T10:03:55;14.07;;;10.38;;
39266;SDS011;24967;51.154;13.812;2023-02-18T10:06:28;12.15;;;9.20;;
39266;SDS011;24967;51.154;13.812;2023-02-18T10:08:57;14.85;;;8.43;;
39266;SDS011;24967;51.154;13.812;2023-02-18T10:11:27;10.85;;;7.93;;
39266;SDS011;24967;51.154;13.812;2023-02-18T10:13:55;11.88;;;7.90;;
39266;SDS011;24967;51.154;13.812;2023-02-18T10:16:24;11.38;;;8.20;;
39266;SDS011;24967;51.154;13.812;2023-02-18T10:18:52;10.18;;;6.65;;
39266;SDS011;24967;51.154;13.812;2023-02-18T10:21:23;8.00;;;5.47;;
39266;SDS011;24967;51.154;13.812;2023-02-18T10:23:53;5.70;;;4.60;;
39266;SDS011;24967;51.154;13.812;2023-02-18T10:26:24;9.50;;;5.25;;
39266;SDS011;24967;51.154;13.812;2023-02-18T10:28:51;6.60;;;4.47;;
39266;SDS011;24967;51.154;13.812;2023-02-18T10:31:19;3.50;;;3.30;;
39266;SDS011;24967;51.154;13.812;2023-02-18T10:33:51;5.45;;;3.70;;
39266;SDS011;24967;51.154;13.812;2023-02-18T10:36:24;4.57;;;4.10;;
39266;SDS011;24967;51.154;13.812;2023-02-18T10:41:59;3.00;;;2.80;;
39266;SDS011;24967;51.154;13.812;2023-02-18T10:44:36;4.47;;;3.88;;
39266;SDS011;24967;51.154;13.812;2023-02-18T10:47:12;5.45;;;4.95;;
39266;SDS011;24967;51.154;13.812;2023-02-18T10:52:35;3.15;;;2.95;;
39266;SDS011;24967;51.154;13.812;2023-02-18T10:55:06;4.00;;;2.80;;
39266;SDS011;24967;51.154;13.812;2023-02-18T10:57:36;2.40;;;2.30;;
39266;SDS011;24967;51.154;13.812;2023-02-18T11:00:14;2.65;;;2.45;;
39266;SDS011;24967;51.154;13.812;2023-02-18T11:02:42;3.80;;;3.33;;
39266;SDS011;24967;51.154;13.812;2023-02-18T11:05:15;4.38;;;2.80;;
39266;SDS011;24967;51.154;13.812;2023-02-18T11:07:48;3.00;;;2.80;;
39266;SDS011;24967;51.154;13.812;2023-02-18T11:10:17;2.17;;;1.67;;
39266;SDS011;24967;51.154;13.812;2023-02-18T11:12:50;2.38;;;1.75;;
39266;SDS011;24967;51.154;13.812;2023-02-18T11:15:21;1.70;;;1.60;;
39266;SDS011;24967;51.154;13.812;2023-02-18T11:17:50;2.00;;;1.80;;
39266;SDS011;24967;51.154;13.812;2023-02-18T11:20:22;2.13;;;1.90;;
39266;SDS011;24967;51.154;13.812;2023-02-18T11:22:51;1.58;;;1.48;;
39266;SDS011;24967;51.154;13.812;2023-02-18T11:27:51;2.50;;;2.17;;
39266;SDS011;24967;51.154;13.812;2023-02-18T11:30:21;1.58;;;1.52;;
39266;SDS011;24967;51.154;13.812;2023-02-18T11:32:51;6.40;;;1.70;;
39266;SDS011;24967;51.154;13.812;2023-02-18T11:35:21;1.50;;;1.40;;
39266;SDS011;24967;51.154;13.812;2023-02-18T11:37:50;1.77;;;1.35;;
39266;SDS011;24967;51.154;13.812;2023-02-18T11:40:21;1.10;;;0.90;;
39266;SDS011;24967;51.154;13.812;2023-02-18T11:42:49;3.13;;;0.90;;
39266;SDS011;24967;51.154;13.812;2023-02-18T11:45:27;2.13;;;1.40;;
39266;SDS011;24967;51.154;13.812;2023-02-18T11:47:58;1.00;;;1.00;;
39266;SDS011;24967;51.154;13.812;2023-02-18T11:50:28;1.38;;;0.85;;
39266;SDS011;24967;51.154;13.812;2023-02-18T11:52:56;1.00;;;0.60;;
39266;SDS011;24967;51.154;13.812;2023-02-18T11:55:24;1.23;;;0.60;;
39266;SDS011;24967;51.154;13.812;2023-02-18T11:57:54;0.50;;;0.50;;
39266;SDS011;24967;51.154;13.812;2023-02-18T12:00:23;0.55;;;0.55;;
39266;SDS011;24967;51.154;13.812;2023-02-18T12:02:55;0.60;;;0.60;;
39266;SDS011;24967;51.154;13.812;2023-02-18T12:05:25;0.47;;;0.45;;
39266;SDS011;24967;51.154;13.812;2023-02-18T12:07:55;0.60;;;0.60;;
39266;SDS011;24967;51.154;13.812;2023-02-18T12:10:27;0.50;;;0.50;;
39266;SDS011;24967;51.154;13.812;2023-02-18T12:13:00;0.40;;;0.40;;
39266;SDS011;24967;51.154;13.812;2023-02-18T12:15:33;0.50;;;0.50;;
39266;SDS011;24967;51.154;13.812;2023-02-18T12:18:25;0.50;;;0.50;;
39266;SDS011;24967;51.154;13.812;2023-02-18T12:21:08;0.50;;;0.43;;
39266;SDS011;24967;51.154;13.812;2023-02-18T12:23:50;0.57;;;0.57;;
39266;SDS011;24967;51.154;13.812;2023-02-18T12:26:25;0.70;;;0.70;;
39266;SDS011;24967;51.154;13.812;2023-02-18T12:29:00;0.80;;;0.70;;
39266;SDS011;24967;51.154;13.812;2023-02-18T12:31:50;0.95;;;0.80;;
39266;SDS011;24967;51.154;13.812;2023-02-18T12:34:47;1.08;;;0.90;;
39266;SDS011;24967;51.154;13.812;2023-02-18T12:37:30;1.05;;;0.90;;
39266;SDS011;24967;51.154;13.812;2023-02-18T12:40:26;1.30;;;1.20;;
39266;SDS011;24967;51.154;13.812;2023-02-18T12:43:06;2.03;;;1.50;;
39266;SDS011;24967;51.154;13.812;2023-02-18T12:45:48;1.40;;;1.30;;
39266;SDS011;24967;51.154;13.812;2023-02-18T12:48:31;1.13;;;1.13;;
39266;SDS011;24967;51.154;13.812;2023-02-18T12:51:14;1.63;;;1.27;;
39266;SDS011;24967;51.154;13.812;2023-02-18T12:53:50;1.92;;;1.08;;
39266;SDS011;24967;51.154;13.812;2023-02-18T12:56:36;1.85;;;1.75;;
39266;SDS011;24967;51.154;13.812;2023-02-18T12:59:32;2.08;;;1.42;;
39266;SDS011;24967;51.154;13.812;2023-02-18T13:02:17;1.58;;;1.50;;
39266;SDS011;24967;51.154;13.812;2023-02-18T13:05:03;1.70;;;1.60;;
39266;SDS011;24967;51.154;13.812;2023-02-18T13:07:38;2.13;;;1.70;;
39266;SDS011;24967;51.154;13.812;2023-02-18T13:10:28;2.33;;;1.80;;
39266;SDS011;24967;51.154;13.812;2023-02-18T13:13:27;1.30;;;1.30;;
39266;SDS011;24967;51.154;13.812;2023-02-18T13:15:58;1.50;;;1.40;;
39266;SDS011;24967;51.154;13.812;2023-02-18T13:18:30;1.70;;;1.60;;
39266;SDS011;24967;51.154;13.812;2023-02-18T13:21:03;2.35;;;1.38;;
39266;SDS011;24967;51.154;13.812;2023-02-18T13:23:33;1.42;;;1.40;;
39266;SDS011;24967;51.154;13.812;2023-02-18T13:26:04;1.40;;;1.35;;
39266;SDS011;24967;51.154;13.812;2023-02-18T13:28:36;2.50;;;1.60;;
39266;SDS011;24967;51.154;13.812;2023-02-18T13:31:12;2.05;;;0.98;;
39266;SDS011;24967;51.154;13.812;2023-02-18T13:33:51;1.52;;;1.00;;
39266;SDS011;24967;51.154;13.812;2023-02-18T13:36:38;1.17;;;0.98;;
39266;SDS011;24967;51.154;13.812;2023-02-18T13:39:12;0.85;;;0.82;;
39266;SDS011;24967;51.154;13.812;2023-02-18T13:41:44;1.67;;;0.85;;
39266;SDS011;24967;51.154;13.812;2023-02-18T13:47:05;0.90;;;0.90;;
39266;SDS011;24967;51.154;13.812;2023-02-18T13:49:36;0.95;;;0.70;;
39266;SDS011;24967;51.154;13.812;2023-02-18T13:52:05;0.87;;;0.70;;
39266;SDS011;24967;51.154;13.812;2023-02-18T13:54:33;1.42;;;0.80;;
39266;SDS011;24967;51.154;13.812;2023-02-18T13:57:06;1.67;;;0.60;;
39266;SDS011;24967;51.154;13.812;2023-02-18T13:59:41;0.55;;;0.55;;
39266;SDS011;24967;51.154;13.812;2023-02-18T14:02:30;0.70;;;0.70;;
39266;SDS011;24967;51.154;13.812;2023-02-18T14:05:13;0.70;;;0.70;;
39266;SDS011;24967;51.154;13.812;2023-02-18T14:07:48;0.70;;;0.70;;
39266;SDS011;24967;51.154;13.812;2023-02-18T14:10:26;0.95;;;0.93;;
39266;SDS011;24967;51.154;13.812;2023-02-18T14:15:59;0.93;;;0.65;;
39266;SDS011;24967;51.154;13.812;2023-02-18T14:18:30;0.85;;;0.70;;
39266;SDS011;24967;51.154;13.812;2023-02-18T14:21:19;2.80;;;0.60;;
39266;SDS011;24967;51.154;13.812;2023-02-18T14:24:00;0.88;;;0.65;;
39266;SDS011;24967;51.154;13.812;2023-02-18T14:26:28;0.82;;;0.82;;
39266;SDS011;24967;51.154;13.812;2023-02-18T14:28:59;0.80;;;0.80;;
39266;SDS011;24967;51.154;13.812;2023-02-18T14:31:34;1.02;;;0.90;;
39266;SDS011;24967;51.154;13.812;2023-02-18T14:34:10;1.70;;;0.90;;
39266;SDS011;24967;51.154;13.812;2023-02-18T14:36:48;1.75;;;0.90;;
39266;SDS011;24967;51.154;13.812;2023-02-18T14:39:27;1.98;;;0.63;;
39266;SDS011;24967;51.154;13.812;2023-02-18T14:42:04;1.30;;;0.70;;
39266;SDS011;24967;51.154;13.812;2023-02-18T14:44:47;0.85;;;0.73;;
39266;SDS011;24967;51.154;13.812;2023-02-18T14:47:26;1.17;;;0.55;;
39266;SDS011;24967;51.154;13.812;2023-02-18T14:49:59;0.80;;;0.80;;
39266;SDS011;24967;51.154;13.812;2023-02-18T14:52:29;1.00;;;0.60;;
39266;SDS011;24967;51.154;13.812;2023-02-18T14:55:00;0.50;;;0.50;;
39266;SDS011;24967;51.154;13.812;2023-02-18T14:57:32;0.60;;;0.60;;
39266;SDS011;24967;51.154;13.812;2023-02-18T15:00:04;0.60;;;0.60;;
39266;SDS011;24967;51.154;13.812;2023-02-18T15:02:34;1.08;;;0.50;;
39266;SDS011;24967;51.154;13.812;2023-02-18T15:05:13;0.40;;;0.40;;
39266;SDS011;24967;51.154;13.812;2023-02-18T15:07:45;2.10;;;0.57;;
39266;SDS011;24967;51.154;13.812;2023-02-18T15:10:20;0.50;;;0.50;;